Fishtrap, Kentucky
Current Conditions -  °F | °C
As of 11:15 AM on Monday 26 Jan 2015 (Local Time) from KPBX Reporting Station
Light Snow Light Snow  
Wind Chill: 19°   Ceiling: 300
Heat Index: 28°   Visibility: 1.2mi
Dew Point: 27°   Wind: 10mph
Humidity: 96%   Direction: 280°W
Pressure: 29.79"   Gusts: 17mph
Location:  37.5004°N, 82.4242°W
Report Text: KPBX 261615Z AUTO 28009G15KT 1 1/4SM -SN OVC003 M02/M03 A2979 RMK AO2 T10201026
Loading
Personal Weather Stations






























Interactive Weather Map New forecast layout! Learn more

10-Day Weather Forecast

Advertisements
Track Severe Weather on mobile